sensor_id;sensor_type;location;lat;lon;timestamp;pressure;altitude;pressure_sealevel;temperature;humidity
31044;BME280;17710;52.520;13.352;2022-08-01T00:01:24;100849.75;;;26.83;40.56
31044;BME280;17710;52.520;13.352;2022-08-01T00:03:50;100849.34;;;26.78;40.99
31044;BME280;17710;52.520;13.352;2022-08-01T00:06:17;100849.84;;;26.56;41.34
31044;BME280;17710;52.520;13.352;2022-08-01T00:08:44;100860.06;;;26.44;41.72
31044;BME280;17710;52.520;13.352;2022-08-01T00:11:10;100855.44;;;26.27;42.17
31044;BME280;17710;52.520;13.352;2022-08-01T00:13:38;100868.56;;;26.67;41.74
31044;BME280;17710;52.520;13.352;2022-08-01T00:16:05;100865.38;;;26.36;42.61
31044;BME280;17710;52.520;13.352;2022-08-01T00:18:31;100862.28;;;26.04;43.48
31044;BME280;17710;52.520;13.352;2022-08-01T00:20:58;100866.63;;;25.87;44.68
31044;BME280;17710;52.520;13.352;2022-08-01T00:23:24;100860.66;;;26.11;43.84
31044;BME280;17710;52.520;13.352;2022-08-01T00:25:50;100860.53;;;26.57;43.14
31044;BME280;17710;52.520;13.352;2022-08-01T00:28:16;100856.03;;;26.48;43.64
31044;BME280;17710;52.520;13.352;2022-08-01T00:30:44;100854.53;;;26.72;42.84
31044;BME280;17710;52.520;13.352;2022-08-01T00:33:10;100859.97;;;26.36;44.30
31044;BME280;17710;52.520;13.352;2022-08-01T00:35:37;100863.75;;;26.16;44.63
31044;BME280;17710;52.520;13.352;2022-08-01T00:38:03;100871.34;;;25.85;45.99
31044;BME280;17710;52.520;13.352;2022-08-01T00:40:29;100868.19;;;25.90;46.36
31044;BME280;17710;52.520;13.352;2022-08-01T00:42:56;100863.44;;;26.29;45.10
31044;BME280;17710;52.520;13.352;2022-08-01T00:45:22;100854.75;;;25.98;46.58
31044;BME280;17710;52.520;13.352;2022-08-01T00:47:50;100860.16;;;25.98;46.90
31044;BME280;17710;52.520;13.352;2022-08-01T00:50:17;100865.88;;;26.22;46.44
31044;BME280;17710;52.520;13.352;2022-08-01T00:52:43;100859.56;;;26.04;47.23
31044;BME280;17710;52.520;13.352;2022-08-01T00:55:11;100856.47;;;25.99;47.55
31044;BME280;17710;52.520;13.352;2022-08-01T00:57:39;100863.75;;;26.16;47.59
31044;BME280;17710;52.520;13.352;2022-08-01T01:00:06;100845.84;;;26.33;47.05
31044;BME280;17710;52.520;13.352;2022-08-01T01:02:33;100852.47;;;26.20;47.57
31044;BME280;17710;52.520;13.352;2022-08-01T01:05:01;100846.63;;;25.98;48.35
31044;BME280;17710;52.520;13.352;2022-08-01T01:07:34;100848.97;;;25.83;49.04
31044;BME280;17710;52.520;13.352;2022-08-01T01:10:07;100848.44;;;25.79;49.27
31044;BME280;17710;52.520;13.352;2022-08-01T01:12:38;100848.34;;;25.71;49.62
31044;BME280;17710;52.520;13.352;2022-08-01T01:15:15;100846.41;;;25.82;49.19
31044;BME280;17710;52.520;13.352;2022-08-01T01:17:46;100847.38;;;25.90;48.85
31044;BME280;17710;52.520;13.352;2022-08-01T01:20:16;100846.13;;;26.12;48.22
31044;BME280;17710;52.520;13.352;2022-08-01T01:22:57;100849.84;;;26.11;47.87
31044;BME280;17710;52.520;13.352;2022-08-01T01:25:39;100845.19;;;26.03;48.06
31044;BME280;17710;52.520;13.352;2022-08-01T01:28:10;100841.47;;;26.04;47.93
31044;BME280;17710;52.520;13.352;2022-08-01T01:30:41;100845.22;;;25.94;48.58
31044;BME280;17710;52.520;13.352;2022-08-01T01:33:10;100834.25;;;25.95;48.46
31044;BME280;17710;52.520;13.352;2022-08-01T01:35:42;100838.91;;;26.03;48.36
31044;BME280;17710;52.520;13.352;2022-08-01T01:38:15;100841.47;;;25.77;49.17
31044;BME280;17710;52.520;13.352;2022-08-01T01:40:43;100830.63;;;25.77;48.86
31044;BME280;17710;52.520;13.352;2022-08-01T01:43:12;100832.38;;;25.96;48.18
31044;BME280;17710;52.520;13.352;2022-08-01T01:45:42;100829.81;;;26.22;47.79
31044;BME280;17710;52.520;13.352;2022-08-01T01:48:13;100833.13;;;26.15;47.82
31044;BME280;17710;52.520;13.352;2022-08-01T01:50:40;100840.38;;;26.15;47.52
31044;BME280;17710;52.520;13.352;2022-08-01T01:53:08;100834.72;;;26.08;47.56
31044;BME280;17710;52.520;13.352;2022-08-01T01:55:37;100836.09;;;25.67;48.51
31044;BME280;17710;52.520;13.352;2022-08-01T01:58:06;100835.16;;;25.59;48.74
31044;BME280;17710;52.520;13.352;2022-08-01T02:00:34;100829.56;;;25.60;48.52
31044;BME280;17710;52.520;13.352;2022-08-01T02:03:06;100829.31;;;25.44;49.57
31044;BME280;17710;52.520;13.352;2022-08-01T02:05:33;100834.16;;;25.60;49.24
31044;BME280;17710;52.520;13.352;2022-08-01T02:08:02;100837.00;;;25.49;49.49
31044;BME280;17710;52.520;13.352;2022-08-01T02:10:31;100835.28;;;25.57;49.65
31044;BME280;17710;52.520;13.352;2022-08-01T02:12:59;100839.56;;;25.40;50.04
31044;BME280;17710;52.520;13.352;2022-08-01T02:15:30;100845.25;;;25.47;49.59
31044;BME280;17710;52.520;13.352;2022-08-01T02:17:57;100842.59;;;25.37;50.17
31044;BME280;17710;52.520;13.352;2022-08-01T02:20:29;100837.91;;;25.30;50.46
31044;BME280;17710;52.520;13.352;2022-08-01T02:23:01;100832.13;;;25.06;51.26
31044;BME280;17710;52.520;13.352;2022-08-01T02:25:33;100848.50;;;25.14;51.07
31044;BME280;17710;52.520;13.352;2022-08-01T02:28:05;100840.25;;;25.06;51.07
31044;BME280;17710;52.520;13.352;2022-08-01T02:30:35;100849.84;;;25.27;50.76
31044;BME280;17710;52.520;13.352;2022-08-01T02:33:05;100847.66;;;25.13;51.00
31044;BME280;17710;52.520;13.352;2022-08-01T02:35:35;100842.81;;;25.07;51.38
31044;BME280;17710;52.520;13.352;2022-08-01T02:38:05;100848.91;;;25.19;51.19
31044;BME280;17710;52.520;13.352;2022-08-01T02:40:33;100841.22;;;25.14;51.41
31044;BME280;17710;52.520;13.352;2022-08-01T02:43:05;100846.47;;;25.16;51.78
31044;BME280;17710;52.520;13.352;2022-08-01T02:45:33;100843.75;;;25.25;51.47
31044;BME280;17710;52.520;13.352;2022-08-01T02:48:05;100839.84;;;25.47;51.19
31044;BME280;17710;52.520;13.352;2022-08-01T02:50:34;100835.47;;;25.36;51.37
31044;BME280;17710;52.520;13.352;2022-08-01T02:53:01;100837.91;;;25.30;51.45
31044;BME280;17710;52.520;13.352;2022-08-01T02:55:32;100836.69;;;25.05;51.99
31044;BME280;17710;52.520;13.352;2022-08-01T02:57:59;100837.38;;;25.17;51.72
31044;BME280;17710;52.520;13.352;2022-08-01T03:00:28;100840.75;;;25.28;51.16
31044;BME280;17710;52.520;13.352;2022-08-01T03:02:56;100835.81;;;25.14;51.67
31044;BME280;17710;52.520;13.352;2022-08-01T03:05:24;100840.75;;;25.28;51.42
31044;BME280;17710;52.520;13.352;2022-08-01T03:07:55;100844.50;;;25.18;51.34
31044;BME280;17710;52.520;13.352;2022-08-01T03:10:23;100844.63;;;25.26;51.44
31044;BME280;17710;52.520;13.352;2022-08-01T03:12:51;100838.03;;;25.38;51.08
31044;BME280;17710;52.520;13.352;2022-08-01T03:15:17;100844.50;;;25.18;51.77
31044;BME280;17710;52.520;13.352;2022-08-01T03:17:46;100837.13;;;24.91;52.29
31044;BME280;17710;52.520;13.352;2022-08-01T03:20:15;100837.81;;;25.02;51.86
31044;BME280;17710;52.520;13.352;2022-08-01T03:22:43;100841.50;;;24.82;52.69
31044;BME280;17710;52.520;13.352;2022-08-01T03:25:13;100850.47;;;25.02;52.02
31044;BME280;17710;52.520;13.352;2022-08-01T03:27:42;100842.81;;;24.59;53.77
31044;BME280;17710;52.520;13.352;2022-08-01T03:30:11;100851.34;;;24.54;54.06
31044;BME280;17710;52.520;13.352;2022-08-01T03:32:38;100847.66;;;23.96;55.85
31044;BME280;17710;52.520;13.352;2022-08-01T03:35:05;100850.47;;;24.44;54.71
31044;BME280;17710;52.520;13.352;2022-08-01T03:37:34;100851.94;;;24.68;53.90
31044;BME280;17710;52.520;13.352;2022-08-01T03:40:06;100864.13;;;24.81;53.38
31044;BME280;17710;52.520;13.352;2022-08-01T03:42:39;100854.75;;;24.85;53.39
31044;BME280;17710;52.520;13.352;2022-08-01T03:45:10;100853.06;;;25.04;52.87
31044;BME280;17710;52.520;13.352;2022-08-01T03:47:38;100856.88;;;25.01;52.78
31044;BME280;17710;52.520;13.352;2022-08-01T03:50:10;100863.59;;;25.07;52.31
31044;BME280;17710;52.520;13.352;2022-08-01T03:52:39;100863.16;;;25.01;52.32
31044;BME280;17710;52.520;13.352;2022-08-01T03:55:08;100859.03;;;24.78;53.44
31044;BME280;17710;52.520;13.352;2022-08-01T03:57:38;100859.75;;;24.99;52.80
31044;BME280;17710;52.520;13.352;2022-08-01T04:00:06;100858.19;;;25.07;52.83
31044;BME280;17710;52.520;13.352;2022-08-01T04:02:34;100859.75;;;24.99;52.73
31044;BME280;17710;52.520;13.352;2022-08-01T04:05:01;100861.00;;;24.86;53.42
31044;BME280;17710;52.520;13.352;2022-08-01T04:07:30;100867.72;;;24.91;53.58
31044;BME280;17710;52.520;13.352;2022-08-01T04:09:57;100862.72;;;24.96;53.23
31044;BME280;17710;52.520;13.352;2022-08-01T04:12:23;100858.91;;;24.89;53.56
31044;BME280;17710;52.520;13.352;2022-08-01T04:14:51;100864.84;;;25.02;53.35
31044;BME280;17710;52.520;13.352;2022-08-01T04:17:18;100865.75;;;24.93;53.91
31044;BME280;17710;52.520;13.352;2022-08-01T04:19:45;100863.84;;;24.75;54.91
31044;BME280;17710;52.520;13.352;2022-08-01T04:22:13;100866.44;;;24.67;55.23
31044;BME280;17710;52.520;13.352;2022-08-01T04:24:41;100861.28;;;24.35;56.79
31044;BME280;17710;52.520;13.352;2022-08-01T04:27:13;100869.25;;;24.55;55.94
31044;BME280;17710;52.520;13.352;2022-08-01T04:29:40;100874.09;;;24.52;56.38
31044;BME280;17710;52.520;13.352;2022-08-01T04:32:12;100862.16;;;24.74;55.70
31044;BME280;17710;52.520;13.352;2022-08-01T04:34:41;100871.50;;;24.31;57.19
31044;BME280;17710;52.520;13.352;2022-08-01T04:37:09;100872.78;;;24.37;56.87
31044;BME280;17710;52.520;13.352;2022-08-01T04:39:38;100874.50;;;24.57;56.09
31044;BME280;17710;52.520;13.352;2022-08-01T04:42:08;100871.25;;;24.73;55.86
31044;BME280;17710;52.520;13.352;2022-08-01T04:44:34;100885.91;;;24.89;55.59
31044;BME280;17710;52.520;13.352;2022-08-01T04:47:02;100884.63;;;25.03;55.29
31044;BME280;17710;52.520;13.352;2022-08-01T04:49:32;100890.88;;;24.75;55.99
31044;BME280;17710;52.520;13.352;2022-08-01T04:51:59;100895.44;;;25.13;54.86
31044;BME280;17710;52.520;13.352;2022-08-01T04:54:25;100888.31;;;25.21;54.86
31044;BME280;17710;52.520;13.352;2022-08-01T04:56:52;100891.31;;;24.80;56.16
31044;BME280;17710;52.520;13.352;2022-08-01T04:59:21;100892.00;;;24.82;56.19
31044;BME280;17710;52.520;13.352;2022-08-01T05:02:06;100887.91;;;24.18;58.70
31044;BME280;17710;52.520;13.352;2022-08-01T05:04:35;100888.69;;;24.20;58.77
31044;BME280;17710;52.520;13.352;2022-08-01T05:07:01;100886.84;;;24.21;59.18
31044;BME280;17710;52.520;13.352;2022-08-01T05:09:28;100894.56;;;24.45;58.05
31044;BME280;17710;52.520;13.352;2022-08-01T05:11:55;100891.72;;;24.66;57.61
31044;BME280;17710;52.520;13.352;2022-08-01T05:14:23;100893.28;;;24.78;56.85
31044;BME280;17710;52.520;13.352;2022-08-01T05:16:50;100898.81;;;24.57;57.95
31044;BME280;17710;52.520;13.352;2022-08-01T05:19:16;100897.69;;;24.40;58.32
31044;BME280;17710;52.520;13.352;2022-08-01T05:21:44;100894.94;;;24.31;58.61
31044;BME280;17710;52.520;13.352;2022-08-01T05:24:10;100899.91;;;24.26;59.00
31044;BME280;17710;52.520;13.352;2022-08-01T05:26:37;100890.16;;;24.63;57.79
31044;BME280;17710;52.520;13.352;2022-08-01T05:29:04;100898.84;;;24.67;58.17
31044;BME280;17710;52.520;13.352;2022-08-01T05:31:30;100894.84;;;24.51;58.54
31044;BME280;17710;52.520;13.352;2022-08-01T05:33:59;100892.72;;;24.84;57.46
31044;BME280;17710;52.520;13.352;2022-08-01T05:36:25;100898.84;;;24.86;57.54
31044;BME280;17710;52.520;13.352;2022-08-01T05:38:53;100893.16;;;24.89;57.60
31044;BME280;17710;52.520;13.352;2022-08-01T05:41:19;100901.81;;;24.83;57.67
31044;BME280;17710;52.520;13.352;2022-08-01T05:43:46;100904.50;;;25.40;55.52
31044;BME280;17710;52.520;13.352;2022-08-01T05:46:12;100901.03;;;25.67;55.06
31044;BME280;17710;52.520;13.352;2022-08-01T05:48:39;100905.97;;;25.82;54.16
31044;BME280;17710;52.520;13.352;2022-08-01T05:51:05;100908.09;;;25.22;55.83
31044;BME280;17710;52.520;13.352;2022-08-01T05:53:32;100907.28;;;24.92;57.06
31044;BME280;17710;52.520;13.352;2022-08-01T05:56:01;100908.06;;;24.64;57.92
31044;BME280;17710;52.520;13.352;2022-08-01T05:58:27;100910.06;;;24.62;58.14
31044;BME280;17710;52.520;13.352;2022-08-01T06:00:53;100912.38;;;24.95;57.28
31044;BME280;17710;52.520;13.352;2022-08-01T06:03:20;100910.50;;;25.15;56.40
31044;BME280;17710;52.520;13.352;2022-08-01T06:05:46;100916.38;;;25.11;56.29
31044;BME280;17710;52.520;13.352;2022-08-01T06:08:13;100916.47;;;25.28;56.04
31044;BME280;17710;52.520;13.352;2022-08-01T06:10:39;100918.09;;;24.23;59.23
31044;BME280;17710;52.520;13.352;2022-08-01T06:13:07;100914.34;;;24.15;60.21
31044;BME280;17710;52.520;13.352;2022-08-01T06:15:34;100920.41;;;24.38;59.17
31044;BME280;17710;52.520;13.352;2022-08-01T06:18:00;100923.22;;;24.27;59.76
31044;BME280;17710;52.520;13.352;2022-08-01T06:20:26;100916.72;;;24.39;58.71
31044;BME280;17710;52.520;13.352;2022-08-01T06:22:53;100919.88;;;24.63;58.18
31044;BME280;17710;52.520;13.352;2022-08-01T06:25:20;100921.72;;;24.62;58.35
31044;BME280;17710;52.520;13.352;2022-08-01T06:27:46;100929.19;;;24.99;56.94
31044;BME280;17710;52.520;13.352;2022-08-01T06:30:14;100928.63;;;25.05;56.57
31044;BME280;17710;52.520;13.352;2022-08-01T06:32:40;100926.66;;;25.54;54.97
31044;BME280;17710;52.520;13.352;2022-08-01T06:35:08;100927.84;;;25.41;55.52
31044;BME280;17710;52.520;13.352;2022-08-01T06:37:34;100926.56;;;25.65;54.69
31044;BME280;17710;52.520;13.352;2022-08-01T06:40:01;100937.78;;;25.60;54.48
31044;BME280;17710;52.520;13.352;2022-08-01T06:42:28;100929.22;;;25.74;53.71
31044;BME280;17710;52.520;13.352;2022-08-01T06:44:56;100928.97;;;26.05;53.32
31044;BME280;17710;52.520;13.352;2022-08-01T06:47:24;100931.97;;;26.56;51.41
31044;BME280;17710;52.520;13.352;2022-08-01T06:49:50;100939.53;;;26.35;51.69
31044;BME280;17710;52.520;13.352;2022-08-01T06:52:17;100926.63;;;26.47;51.14
31044;BME280;17710;52.520;13.352;2022-08-01T06:54:43;100929.47;;;26.45;51.40
31044;BME280;17710;52.520;13.352;2022-08-01T06:57:10;100934.94;;;26.63;50.69
31044;BME280;17710;52.520;13.352;2022-08-01T06:59:36;100937.97;;;25.96;52.56
31044;BME280;17710;52.520;13.352;2022-08-01T07:02:02;100937.31;;;25.84;52.63
31044;BME280;17710;52.520;13.352;2022-08-01T07:04:30;100937.06;;;25.77;52.75
31044;BME280;17710;52.520;13.352;2022-08-01T07:06:57;100936.41;;;26.30;51.44
31044;BME280;17710;52.520;13.352;2022-08-01T07:09:23;100940.88;;;26.49;51.19
31044;BME280;17710;52.520;13.352;2022-08-01T07:11:50;100933.03;;;26.46;50.91
31044;BME280;17710;52.520;13.352;2022-08-01T07:14:18;100940.13;;;26.29;51.79
31044;BME280;17710;52.520;13.352;2022-08-01T07:16:44;100944.72;;;26.46;51.46
31044;BME280;17710;52.520;13.352;2022-08-01T07:19:11;100939.81;;;26.32;51.82
31044;BME280;17710;52.520;13.352;2022-08-01T07:21:39;100950.91;;;26.84;50.61
31044;BME280;17710;52.520;13.352;2022-08-01T07:24:07;100949.84;;;26.12;52.19
31044;BME280;17710;52.520;13.352;2022-08-01T07:26:33;100940.63;;;26.42;51.52
31044;BME280;17710;52.520;13.352;2022-08-01T07:29:00;100950.50;;;26.61;50.95
31044;BME280;17710;52.520;13.352;2022-08-01T07:31:27;100954.53;;;26.20;51.74
31044;BME280;17710;52.520;13.352;2022-08-01T07:33:54;100946.09;;;26.78;50.73
31044;BME280;17710;52.520;13.352;2022-08-01T07:36:20;100957.66;;;26.52;50.64
31044;BME280;17710;52.520;13.352;2022-08-01T07:38:48;100946.09;;;26.78;50.10
31044;BME280;17710;52.520;13.352;2022-08-01T07:41:15;100948.75;;;27.05;49.27
31044;BME280;17710;52.520;13.352;2022-08-01T07:43:41;100953.66;;;27.02;49.38
31044;BME280;17710;52.520;13.352;2022-08-01T07:46:08;100953.25;;;26.96;49.08
31044;BME280;17710;52.520;13.352;2022-08-01T07:48:34;100955.03;;;27.06;48.82
31044;BME280;17710;52.520;13.352;2022-08-01T07:51:01;100960.22;;;27.17;47.94
31044;BME280;17710;52.520;13.352;2022-08-01T07:53:27;100952.31;;;27.23;47.69
31044;BME280;17710;52.520;13.352;2022-08-01T07:55:55;100968.38;;;27.17;47.44
31044;BME280;17710;52.520;13.352;2022-08-01T07:58:22;100970.53;;;27.13;47.79
31044;BME280;17710;52.520;13.352;2022-08-01T08:00:48;100978.31;;;26.81;48.42
31044;BME280;17710;52.520;13.352;2022-08-01T08:03:14;100980.16;;;26.63;49.29
31044;BME280;17710;52.520;13.352;2022-08-01T08:05:41;100980.94;;;26.45;49.80
31044;BME280;17710;52.520;13.352;2022-08-01T08:08:08;100984.03;;;26.23;50.57
31044;BME280;17710;52.520;13.352;2022-08-01T08:10:35;100989.22;;;26.07;51.28
31044;BME280;17710;52.520;13.352;2022-08-01T08:13:05;100984.78;;;25.78;51.49
31044;BME280;17710;52.520;13.352;2022-08-01T08:15:32;100982.25;;;25.58;52.13
31044;BME280;17710;52.520;13.352;2022-08-01T08:17:58;100972.97;;;25.70;52.04
31044;BME280;17710;52.520;13.352;2022-08-01T08:20:25;100980.75;;;26.29;50.31
31044;BME280;17710;52.520;13.352;2022-08-01T08:22:52;100984.06;;;26.78;48.82
31044;BME280;17710;52.520;13.352;2022-08-01T08:25:19;100991.47;;;26.76;47.94
31044;BME280;17710;52.520;13.352;2022-08-01T08:27:47;100983.25;;;26.85;47.81
31044;BME280;17710;52.520;13.352;2022-08-01T08:30:15;100987.53;;;26.43;48.60
31044;BME280;17710;52.520;13.352;2022-08-01T08:32:41;100990.13;;;26.35;49.19
31044;BME280;17710;52.520;13.352;2022-08-01T08:35:08;100989.28;;;26.34;49.23
31044;BME280;17710;52.520;13.352;2022-08-01T08:37:35;100981.78;;;26.73;48.27
31044;BME280;17710;52.520;13.352;2022-08-01T08:40:02;100990.13;;;26.89;47.67
31044;BME280;17710;52.520;13.352;2022-08-01T08:42:33;100988.28;;;26.63;47.81
31044;BME280;17710;52.520;13.352;2022-08-01T08:45:00;100992.97;;;26.43;48.55
31044;BME280;17710;52.520;13.352;2022-08-01T08:47:29;100995.41;;;26.64;47.85
31044;BME280;17710;52.520;13.352;2022-08-01T08:49:59;100997.91;;;26.75;47.40
31044;BME280;17710;52.520;13.352;2022-08-01T08:52:27;100992.97;;;26.88;47.12
31044;BME280;17710;52.520;13.352;2022-08-01T08:54:55;100992.94;;;26.98;46.73
31044;BME280;17710;52.520;13.352;2022-08-01T08:57:22;100991.13;;;27.42;45.71
31044;BME280;17710;52.520;13.352;2022-08-01T08:59:49;100992.63;;;28.05;43.86
31044;BME280;17710;52.520;13.352;2022-08-01T09:02:17;100990.22;;;27.76;44.20
31044;BME280;17710;52.520;13.352;2022-08-01T09:04:46;100987.31;;;28.30;42.83
31044;BME280;17710;52.520;13.352;2022-08-01T09:07:13;100997.19;;;28.05;42.71
31044;BME280;17710;52.520;13.352;2022-08-01T09:09:40;100995.81;;;28.01;42.33
31044;BME280;17710;52.520;13.352;2022-08-01T09:12:07;100993.13;;;27.40;43.89
31044;BME280;17710;52.520;13.352;2022-08-01T09:14:33;100998.94;;;27.45;44.12
31044;BME280;17710;52.520;13.352;2022-08-01T09:17:03;101001.53;;;27.11;44.87
31044;BME280;17710;52.520;13.352;2022-08-01T09:19:37;101008.19;;;27.34;44.53
31044;BME280;17710;52.520;13.352;2022-08-01T09:22:07;101009.84;;;27.09;45.22
31044;BME280;17710;52.520;13.352;2022-08-01T09:24:34;101013.69;;;27.60;44.40
31044;BME280;17710;52.520;13.352;2022-08-01T09:27:01;101011.16;;;27.84;43.56
31044;BME280;17710;52.520;13.352;2022-08-01T09:29:41;101014.22;;;27.46;43.62
31044;BME280;17710;52.520;13.352;2022-08-01T09:32:10;101011.44;;;27.20;44.81
31044;BME280;17710;52.520;13.352;2022-08-01T09:34:36;101019.09;;;26.89;45.62
31044;BME280;17710;52.520;13.352;2022-08-01T09:37:03;101024.41;;;27.08;45.39
31044;BME280;17710;52.520;13.352;2022-08-01T09:39:34;101023.78;;;27.14;45.43
31044;BME280;17710;52.520;13.352;2022-08-01T09:42:19;101023.16;;;27.20;45.07
31044;BME280;17710;52.520;13.352;2022-08-01T09:44:47;101025.19;;;27.36;44.81
31044;BME280;17710;52.520;13.352;2022-08-01T09:47:14;101034.03;;;26.66;46.66
31044;BME280;17710;52.520;13.352;2022-08-01T09:49:42;101042.38;;;26.54;47.25
31044;BME280;17710;52.520;13.352;2022-08-01T09:52:11;101042.75;;;26.32;47.94
31044;BME280;17710;52.520;13.352;2022-08-01T09:54:41;101053.69;;;26.77;46.86
31044;BME280;17710;52.520;13.352;2022-08-01T09:57:09;101050.41;;;26.74;47.01
31044;BME280;17710;52.520;13.352;2022-08-01T09:59:37;101047.81;;;26.82;46.70
31044;BME280;17710;52.520;13.352;2022-08-01T10:02:07;101048.19;;;26.87;46.58
31044;BME280;17710;52.520;13.352;2022-08-01T10:04:34;101052.88;;;26.67;46.78
31044;BME280;17710;52.520;13.352;2022-08-01T10:07:05;101058.34;;;26.11;48.30
31044;BME280;17710;52.520;13.352;2022-08-01T10:09:33;101061.00;;;26.20;47.95
31044;BME280;17710;52.520;13.352;2022-08-01T10:12:02;101055.22;;;27.07;45.96
31044;BME280;17710;52.520;13.352;2022-08-01T10:14:29;101052.25;;;27.63;44.34
31044;BME280;17710;52.520;13.352;2022-08-01T10:16:57;101058.66;;;27.80;43.76
31044;BME280;17710;52.520;13.352;2022-08-01T10:19:26;101065.53;;;27.39;45.15
31044;BME280;17710;52.520;13.352;2022-08-01T10:21:54;101064.78;;;27.29;45.04
31044;BME280;17710;52.520;13.352;2022-08-01T10:24:21;101070.41;;;27.18;45.08
31044;BME280;17710;52.520;13.352;2022-08-01T10:26:48;101061.13;;;27.20;44.54
31044;BME280;17710;52.520;13.352;2022-08-01T10:29:19;101068.25;;;27.21;44.75
31044;BME280;17710;52.520;13.352;2022-08-01T10:31:46;101066.59;;;27.56;44.14
31044;BME280;17710;52.520;13.352;2022-08-01T10:34:13;101063.31;;;27.52;44.37
31044;BME280;17710;52.520;13.352;2022-08-01T10:36:44;101070.84;;;27.23;45.09
31044;BME280;17710;52.520;13.352;2022-08-01T10:39:11;101072.41;;;26.98;45.70
31044;BME280;17710;52.520;13.352;2022-08-01T10:41:38;101074.53;;;27.04;45.69
31044;BME280;17710;52.520;13.352;2022-08-01T10:44:06;101074.03;;;26.91;46.00
31044;BME280;17710;52.520;13.352;2022-08-01T10:46:37;101077.63;;;27.09;45.75
31044;BME280;17710;52.520;13.352;2022-08-01T10:49:07;101072.69;;;27.40;44.94
31044;BME280;17710;52.520;13.352;2022-08-01T10:51:36;101072.63;;;27.50;44.35
31044;BME280;17710;52.520;13.352;2022-08-01T10:54:05;101072.06;;;26.46;46.56
31044;BME280;17710;52.520;13.352;2022-08-01T10:56:38;101076.91;;;26.80;46.33
31044;BME280;17710;52.520;13.352;2022-08-01T10:59:05;101069.88;;;27.14;45.26
31044;BME280;17710;52.520;13.352;2022-08-01T11:01:32;101071.78;;;27.67;44.29
31044;BME280;17710;52.520;13.352;2022-08-01T11:04:06;101070.69;;;28.03;43.15
31044;BME280;17710;52.520;13.352;2022-08-01T11:06:49;101076.34;;;28.28;42.47
31044;BME280;17710;52.520;13.352;2022-08-01T11:09:27;101076.50;;;28.60;42.38
31044;BME280;17710;52.520;13.352;2022-08-01T11:12:00;101078.88;;;28.63;41.97
31044;BME280;17710;52.520;13.352;2022-08-01T11:14:28;101086.72;;;29.00;41.23
31044;BME280;17710;52.520;13.352;2022-08-01T11:16:55;101077.16;;;28.88;41.68
31044;BME280;17710;52.520;13.352;2022-08-01T11:19:23;101088.03;;;28.62;41.83
31044;BME280;17710;52.520;13.352;2022-08-01T11:21:59;101093.06;;;28.15;42.83
31044;BME280;17710;52.520;13.352;2022-08-01T11:24:54;101092.56;;;27.58;44.42
31044;BME280;17710;52.520;13.352;2022-08-01T11:27:25;101111.53;;;27.41;45.65
31044;BME280;17710;52.520;13.352;2022-08-01T11:30:23;101108.53;;;27.44;46.04
31044;BME280;17710;52.520;13.352;2022-08-01T11:32:52;101117.25;;;27.37;46.49
31044;BME280;17710;52.520;13.352;2022-08-01T11:35:21;101112.63;;;27.48;46.54
31044;BME280;17710;52.520;13.352;2022-08-01T11:37:49;101122.38;;;27.23;48.02
31044;BME280;17710;52.520;13.352;2022-08-01T11:40:18;101120.19;;;27.26;47.37
31044;BME280;17710;52.520;13.352;2022-08-01T11:42:45;101126.31;;;27.56;46.66
31044;BME280;17710;52.520;13.352;2022-08-01T11:45:11;101127.16;;;27.56;45.88
31044;BME280;17710;52.520;13.352;2022-08-01T11:47:45;101126.09;;;27.40;46.00
31044;BME280;17710;52.520;13.352;2022-08-01T11:50:31;101127.69;;;27.60;45.16
31044;BME280;17710;52.520;13.352;2022-08-01T11:52:58;101117.16;;;27.57;45.24
31044;BME280;17710;52.520;13.352;2022-08-01T11:55:26;101117.94;;;28.28;43.66
31044;BME280;17710;52.520;13.352;2022-08-01T11:57:58;101115.66;;;28.75;42.90
31044;BME280;17710;52.520;13.352;2022-08-01T12:00:25;101119.84;;;28.36;43.01
31044;BME280;17710;52.520;13.352;2022-08-01T12:02:57;101121.28;;;28.04;43.25
31044;BME280;17710;52.520;13.352;2022-08-01T12:05:24;101120.22;;;28.41;42.55
31044;BME280;17710;52.520;13.352;2022-08-01T12:07:52;101119.75;;;28.20;42.81
31044;BME280;17710;52.520;13.352;2022-08-01T12:10:21;101115.13;;;29.06;40.98
31044;BME280;17710;52.520;13.352;2022-08-01T12:12:49;101113.88;;;29.34;39.86
31044;BME280;17710;52.520;13.352;2022-08-01T12:15:17;101106.75;;;29.57;38.87
31044;BME280;17710;52.520;13.352;2022-08-01T12:17:46;101122.03;;;29.42;39.23
31044;BME280;17710;52.520;13.352;2022-08-01T12:20:15;101113.88;;;29.50;38.84
31044;BME280;17710;52.520;13.352;2022-08-01T12:22:42;101112.53;;;28.96;39.92
31044;BME280;17710;52.520;13.352;2022-08-01T12:25:12;101119.47;;;28.90;40.26
31044;BME280;17710;52.520;13.352;2022-08-01T12:27:41;101113.38;;;28.29;41.34
31044;BME280;17710;52.520;13.352;2022-08-01T12:30:10;101112.13;;;28.83;40.30
31044;BME280;17710;52.520;13.352;2022-08-01T12:32:38;101109.38;;;29.17;39.46
31044;BME280;17710;52.520;13.352;2022-08-01T12:35:07;101114.91;;;29.49;38.96
31044;BME280;17710;52.520;13.352;2022-08-01T12:37:35;101109.16;;;30.17;37.57
31044;BME280;17710;52.520;13.352;2022-08-01T12:40:08;101113.59;;;30.18;37.37
31044;BME280;17710;52.520;13.352;2022-08-01T12:42:37;101106.91;;;30.29;37.28
31044;BME280;17710;52.520;13.352;2022-08-01T12:45:07;101114.75;;;30.32;37.54
31044;BME280;17710;52.520;13.352;2022-08-01T12:47:35;101115.19;;;30.68;37.20